sensor_id;sensor_type;location;lat;lon;timestamp;P1;durP1;ratioP1;P2;durP2;ratioP2
12958;SDS011;6544;51.666;6.634;2022-10-31T00:01:44;20.52;;;10.23;;
12958;SDS011;6544;51.666;6.634;2022-10-31T00:04:12;20.65;;;10.75;;
12958;SDS011;6544;51.666;6.634;2022-10-31T00:06:39;14.73;;;9.40;;
12958;SDS011;6544;51.666;6.634;2022-10-31T00:09:05;14.88;;;9.23;;
12958;SDS011;6544;51.666;6.634;2022-10-31T00:11:32;17.45;;;9.40;;
12958;SDS011;6544;51.666;6.634;2022-10-31T00:13:59;16.88;;;10.27;;
12958;SDS011;6544;51.666;6.634;2022-10-31T00:16:27;16.98;;;8.90;;
12958;SDS011;6544;51.666;6.634;2022-10-31T00:18:55;15.63;;;8.63;;
12958;SDS011;6544;51.666;6.634;2022-10-31T00:21:25;15.10;;;9.05;;
12958;SDS011;6544;51.666;6.634;2022-10-31T00:23:52;15.60;;;9.13;;
12958;SDS011;6544;51.666;6.634;2022-10-31T00:26:19;14.30;;;8.80;;
12958;SDS011;6544;51.666;6.634;2022-10-31T00:28:46;13.50;;;8.52;;
12958;SDS011;6544;51.666;6.634;2022-10-31T00:31:13;15.65;;;8.70;;
12958;SDS011;6544;51.666;6.634;2022-10-31T00:33:40;10.23;;;7.95;;
12958;SDS011;6544;51.666;6.634;2022-10-31T00:36:10;13.02;;;7.53;;
12958;SDS011;6544;51.666;6.634;2022-10-31T00:38:40;13.80;;;8.02;;
12958;SDS011;6544;51.666;6.634;2022-10-31T00:41:07;13.50;;;8.30;;
12958;SDS011;6544;51.666;6.634;2022-10-31T00:43:34;13.43;;;7.80;;
12958;SDS011;6544;51.666;6.634;2022-10-31T00:46:01;13.70;;;8.18;;
12958;SDS011;6544;51.666;6.634;2022-10-31T00:48:28;15.65;;;7.60;;
12958;SDS011;6544;51.666;6.634;2022-10-31T00:50:55;11.73;;;7.32;;
12958;SDS011;6544;51.666;6.634;2022-10-31T00:53:22;15.80;;;7.53;;
12958;SDS011;6544;51.666;6.634;2022-10-31T00:55:51;12.60;;;7.75;;
12958;SDS011;6544;51.666;6.634;2022-10-31T00:58:18;14.27;;;7.63;;
12958;SDS011;6544;51.666;6.634;2022-10-31T01:00:46;16.67;;;8.10;;
12958;SDS011;6544;51.666;6.634;2022-10-31T01:03:19;14.60;;;7.40;;
12958;SDS011;6544;51.666;6.634;2022-10-31T01:05:54;13.90;;;7.20;;
12958;SDS011;6544;51.666;6.634;2022-10-31T01:08:25;11.85;;;6.88;;
12958;SDS011;6544;51.666;6.634;2022-10-31T01:11:00;14.10;;;8.25;;
12958;SDS011;6544;51.666;6.634;2022-10-31T01:13:29;13.27;;;8.65;;
12958;SDS011;6544;51.666;6.634;2022-10-31T01:15:57;16.27;;;8.50;;
12958;SDS011;6544;51.666;6.634;2022-10-31T01:18:25;13.13;;;8.50;;
12958;SDS011;6544;51.666;6.634;2022-10-31T01:20:59;15.13;;;9.05;;
12958;SDS011;6544;51.666;6.634;2022-10-31T01:23:27;12.27;;;8.27;;
12958;SDS011;6544;51.666;6.634;2022-10-31T01:26:06;13.52;;;8.77;;
12958;SDS011;6544;51.666;6.634;2022-10-31T01:28:35;15.02;;;8.88;;
12958;SDS011;6544;51.666;6.634;2022-10-31T01:31:04;14.77;;;7.93;;
12958;SDS011;6544;51.666;6.634;2022-10-31T01:33:32;11.50;;;8.25;;
12958;SDS011;6544;51.666;6.634;2022-10-31T01:36:00;11.77;;;8.80;;
12958;SDS011;6544;51.666;6.634;2022-10-31T01:38:27;15.20;;;8.38;;
12958;SDS011;6544;51.666;6.634;2022-10-31T01:40:54;13.10;;;8.20;;
12958;SDS011;6544;51.666;6.634;2022-10-31T01:43:22;15.98;;;9.48;;
12958;SDS011;6544;51.666;6.634;2022-10-31T01:45:51;13.95;;;8.52;;
12958;SDS011;6544;51.666;6.634;2022-10-31T01:48:21;13.80;;;8.65;;
12958;SDS011;6544;51.666;6.634;2022-10-31T01:50:52;13.55;;;8.35;;
12958;SDS011;6544;51.666;6.634;2022-10-31T01:53:21;15.15;;;10.00;;
12958;SDS011;6544;51.666;6.634;2022-10-31T01:55:49;14.52;;;8.50;;
12958;SDS011;6544;51.666;6.634;2022-10-31T01:58:18;14.75;;;9.13;;
12958;SDS011;6544;51.666;6.634;2022-10-31T02:00:51;15.93;;;8.95;;
12958;SDS011;6544;51.666;6.634;2022-10-31T02:03:21;16.83;;;9.43;;
12958;SDS011;6544;51.666;6.634;2022-10-31T02:05:50;16.83;;;9.50;;
12958;SDS011;6544;51.666;6.634;2022-10-31T02:08:18;12.55;;;8.45;;
12958;SDS011;6544;51.666;6.634;2022-10-31T02:10:49;21.20;;;10.40;;
12958;SDS011;6544;51.666;6.634;2022-10-31T02:13:16;14.50;;;9.27;;
12958;SDS011;6544;51.666;6.634;2022-10-31T02:15:44;11.73;;;8.60;;
12958;SDS011;6544;51.666;6.634;2022-10-31T02:18:14;15.52;;;9.93;;
12958;SDS011;6544;51.666;6.634;2022-10-31T02:20:45;12.73;;;8.75;;
12958;SDS011;6544;51.666;6.634;2022-10-31T02:23:37;16.48;;;7.97;;
12958;SDS011;6544;51.666;6.634;2022-10-31T02:26:31;15.57;;;9.85;;
12958;SDS011;6544;51.666;6.634;2022-10-31T02:29:20;13.85;;;8.48;;
12958;SDS011;6544;51.666;6.634;2022-10-31T02:32:12;12.82;;;8.70;;
12958;SDS011;6544;51.666;6.634;2022-10-31T02:34:44;14.70;;;9.27;;
12958;SDS011;6544;51.666;6.634;2022-10-31T02:37:21;16.58;;;9.95;;
12958;SDS011;6544;51.666;6.634;2022-10-31T02:39:52;16.92;;;8.98;;
12958;SDS011;6544;51.666;6.634;2022-10-31T02:42:24;11.85;;;9.68;;
12958;SDS011;6544;51.666;6.634;2022-10-31T02:44:58;13.60;;;9.15;;
12958;SDS011;6544;51.666;6.634;2022-10-31T02:47:32;15.27;;;8.63;;
12958;SDS011;6544;51.666;6.634;2022-10-31T02:50:03;13.18;;;8.77;;
12958;SDS011;6544;51.666;6.634;2022-10-31T02:52:33;14.27;;;8.23;;
12958;SDS011;6544;51.666;6.634;2022-10-31T02:55:08;14.18;;;9.40;;
12958;SDS011;6544;51.666;6.634;2022-10-31T02:57:37;16.02;;;8.65;;
12958;SDS011;6544;51.666;6.634;2022-10-31T03:00:08;13.05;;;8.32;;
12958;SDS011;6544;51.666;6.634;2022-10-31T03:02:45;11.98;;;8.57;;
12958;SDS011;6544;51.666;6.634;2022-10-31T03:05:23;12.68;;;8.82;;
12958;SDS011;6544;51.666;6.634;2022-10-31T03:08:05;14.25;;;9.77;;
12958;SDS011;6544;51.666;6.634;2022-10-31T03:10:39;11.10;;;8.45;;
12958;SDS011;6544;51.666;6.634;2022-10-31T03:13:10;13.05;;;8.05;;
12958;SDS011;6544;51.666;6.634;2022-10-31T03:15:44;12.70;;;8.73;;
12958;SDS011;6544;51.666;6.634;2022-10-31T03:18:16;14.52;;;9.00;;
12958;SDS011;6544;51.666;6.634;2022-10-31T03:20:48;13.02;;;9.07;;
12958;SDS011;6544;51.666;6.634;2022-10-31T03:23:20;13.20;;;8.20;;
12958;SDS011;6544;51.666;6.634;2022-10-31T03:25:49;12.00;;;9.40;;
12958;SDS011;6544;51.666;6.634;2022-10-31T03:28:20;17.13;;;10.73;;
12958;SDS011;6544;51.666;6.634;2022-10-31T03:30:53;11.85;;;8.77;;
12958;SDS011;6544;51.666;6.634;2022-10-31T03:33:23;13.40;;;9.15;;
12958;SDS011;6544;51.666;6.634;2022-10-31T03:35:54;12.70;;;9.50;;
12958;SDS011;6544;51.666;6.634;2022-10-31T03:38:23;12.88;;;9.00;;
12958;SDS011;6544;51.666;6.634;2022-10-31T03:40:51;13.10;;;8.82;;
12958;SDS011;6544;51.666;6.634;2022-10-31T03:43:22;13.43;;;9.32;;
12958;SDS011;6544;51.666;6.634;2022-10-31T03:45:52;11.77;;;9.13;;
12958;SDS011;6544;51.666;6.634;2022-10-31T03:48:19;14.88;;;8.93;;
12958;SDS011;6544;51.666;6.634;2022-10-31T03:50:50;12.57;;;9.30;;
12958;SDS011;6544;51.666;6.634;2022-10-31T03:53:26;13.88;;;10.60;;
12958;SDS011;6544;51.666;6.634;2022-10-31T03:55:59;15.73;;;8.73;;
12958;SDS011;6544;51.666;6.634;2022-10-31T03:58:29;11.10;;;8.60;;
12958;SDS011;6544;51.666;6.634;2022-10-31T04:01:02;13.15;;;9.05;;
12958;SDS011;6544;51.666;6.634;2022-10-31T04:03:34;13.13;;;7.95;;
12958;SDS011;6544;51.666;6.634;2022-10-31T04:06:04;13.98;;;8.88;;
12958;SDS011;6544;51.666;6.634;2022-10-31T04:08:38;14.90;;;10.13;;
12958;SDS011;6544;51.666;6.634;2022-10-31T04:11:08;13.27;;;8.75;;
12958;SDS011;6544;51.666;6.634;2022-10-31T04:13:37;13.10;;;9.65;;
12958;SDS011;6544;51.666;6.634;2022-10-31T04:16:08;13.23;;;9.35;;
12958;SDS011;6544;51.666;6.634;2022-10-31T04:18:37;10.90;;;8.18;;
12958;SDS011;6544;51.666;6.634;2022-10-31T04:21:05;12.45;;;9.00;;
12958;SDS011;6544;51.666;6.634;2022-10-31T04:23:34;10.45;;;7.95;;
12958;SDS011;6544;51.666;6.634;2022-10-31T04:26:02;12.35;;;7.85;;
12958;SDS011;6544;51.666;6.634;2022-10-31T04:28:29;12.38;;;9.02;;
12958;SDS011;6544;51.666;6.634;2022-10-31T04:30:57;12.77;;;9.48;;
12958;SDS011;6544;51.666;6.634;2022-10-31T04:33:24;12.50;;;8.63;;
12958;SDS011;6544;51.666;6.634;2022-10-31T04:35:52;11.82;;;9.02;;
12958;SDS011;6544;51.666;6.634;2022-10-31T04:38:19;13.18;;;8.35;;
12958;SDS011;6544;51.666;6.634;2022-10-31T04:40:46;11.18;;;8.32;;
12958;SDS011;6544;51.666;6.634;2022-10-31T04:43:13;11.40;;;8.85;;
12958;SDS011;6544;51.666;6.634;2022-10-31T04:45:40;11.88;;;8.18;;
12958;SDS011;6544;51.666;6.634;2022-10-31T04:48:07;11.20;;;8.52;;
12958;SDS011;6544;51.666;6.634;2022-10-31T04:50:33;12.00;;;7.60;;
12958;SDS011;6544;51.666;6.634;2022-10-31T04:53:02;10.00;;;7.20;;
12958;SDS011;6544;51.666;6.634;2022-10-31T04:55:29;10.35;;;8.13;;
12958;SDS011;6544;51.666;6.634;2022-10-31T04:57:56;11.13;;;8.80;;
12958;SDS011;6544;51.666;6.634;2022-10-31T05:00:23;13.13;;;9.35;;
12958;SDS011;6544;51.666;6.634;2022-10-31T05:02:51;13.02;;;8.85;;
12958;SDS011;6544;51.666;6.634;2022-10-31T05:05:20;10.00;;;8.20;;
12958;SDS011;6544;51.666;6.634;2022-10-31T05:07:48;11.35;;;8.73;;
12958;SDS011;6544;51.666;6.634;2022-10-31T05:10:17;12.13;;;8.10;;
12958;SDS011;6544;51.666;6.634;2022-10-31T05:12:46;12.32;;;7.90;;
12958;SDS011;6544;51.666;6.634;2022-10-31T05:15:13;10.98;;;8.07;;
12958;SDS011;6544;51.666;6.634;2022-10-31T05:17:41;10.85;;;8.80;;
12958;SDS011;6544;51.666;6.634;2022-10-31T05:20:08;11.93;;;9.07;;
12958;SDS011;6544;51.666;6.634;2022-10-31T05:22:35;15.18;;;9.38;;
12958;SDS011;6544;51.666;6.634;2022-10-31T05:25:03;14.20;;;8.40;;
12958;SDS011;6544;51.666;6.634;2022-10-31T05:27:31;13.85;;;8.15;;
12958;SDS011;6544;51.666;6.634;2022-10-31T05:29:58;13.82;;;8.10;;
12958;SDS011;6544;51.666;6.634;2022-10-31T05:32:25;16.25;;;9.85;;
12958;SDS011;6544;51.666;6.634;2022-10-31T05:34:52;12.95;;;8.93;;
12958;SDS011;6544;51.666;6.634;2022-10-31T05:37:19;12.57;;;9.15;;
12958;SDS011;6544;51.666;6.634;2022-10-31T05:39:45;10.15;;;8.35;;
12958;SDS011;6544;51.666;6.634;2022-10-31T05:42:12;11.27;;;8.45;;
12958;SDS011;6544;51.666;6.634;2022-10-31T05:44:40;13.20;;;9.82;;
12958;SDS011;6544;51.666;6.634;2022-10-31T05:47:07;12.15;;;9.30;;
12958;SDS011;6544;51.666;6.634;2022-10-31T05:49:34;13.55;;;10.23;;
12958;SDS011;6544;51.666;6.634;2022-10-31T05:52:01;13.18;;;8.90;;
12958;SDS011;6544;51.666;6.634;2022-10-31T05:54:28;13.38;;;9.13;;
12958;SDS011;6544;51.666;6.634;2022-10-31T05:56:55;13.35;;;8.68;;
12958;SDS011;6544;51.666;6.634;2022-10-31T05:59:22;12.77;;;9.18;;
12958;SDS011;6544;51.666;6.634;2022-10-31T06:01:50;11.35;;;8.27;;
12958;SDS011;6544;51.666;6.634;2022-10-31T06:04:17;13.07;;;8.68;;
12958;SDS011;6544;51.666;6.634;2022-10-31T06:06:44;9.82;;;8.43;;
12958;SDS011;6544;51.666;6.634;2022-10-31T06:09:11;15.15;;;10.10;;
12958;SDS011;6544;51.666;6.634;2022-10-31T06:11:37;12.95;;;9.98;;
12958;SDS011;6544;51.666;6.634;2022-10-31T06:14:05;13.27;;;9.75;;
12958;SDS011;6544;51.666;6.634;2022-10-31T06:16:32;11.85;;;8.48;;
12958;SDS011;6544;51.666;6.634;2022-10-31T06:19:00;11.32;;;8.88;;
12958;SDS011;6544;51.666;6.634;2022-10-31T06:21:27;15.60;;;10.05;;
12958;SDS011;6544;51.666;6.634;2022-10-31T06:23:54;11.25;;;8.32;;
12958;SDS011;6544;51.666;6.634;2022-10-31T06:26:21;15.93;;;8.75;;
12958;SDS011;6544;51.666;6.634;2022-10-31T06:28:48;17.98;;;9.70;;
12958;SDS011;6544;51.666;6.634;2022-10-31T06:31:15;11.43;;;8.45;;
12958;SDS011;6544;51.666;6.634;2022-10-31T06:33:42;14.05;;;8.50;;
12958;SDS011;6544;51.666;6.634;2022-10-31T06:36:10;12.82;;;7.88;;
12958;SDS011;6544;51.666;6.634;2022-10-31T06:38:37;21.05;;;8.63;;
12958;SDS011;6544;51.666;6.634;2022-10-31T06:41:04;12.75;;;9.45;;
12958;SDS011;6544;51.666;6.634;2022-10-31T06:43:31;13.98;;;9.40;;
12958;SDS011;6544;51.666;6.634;2022-10-31T06:46:01;16.92;;;7.97;;
12958;SDS011;6544;51.666;6.634;2022-10-31T06:48:29;13.25;;;8.35;;
12958;SDS011;6544;51.666;6.634;2022-10-31T06:50:57;12.05;;;8.50;;
12958;SDS011;6544;51.666;6.634;2022-10-31T06:53:26;12.38;;;8.52;;
12958;SDS011;6544;51.666;6.634;2022-10-31T06:55:54;12.95;;;8.93;;
12958;SDS011;6544;51.666;6.634;2022-10-31T06:58:22;13.27;;;8.90;;
12958;SDS011;6544;51.666;6.634;2022-10-31T07:00:49;13.23;;;9.13;;
12958;SDS011;6544;51.666;6.634;2022-10-31T07:03:16;13.13;;;8.30;;
12958;SDS011;6544;51.666;6.634;2022-10-31T07:05:43;13.15;;;9.75;;
12958;SDS011;6544;51.666;6.634;2022-10-31T07:08:11;15.07;;;10.90;;
12958;SDS011;6544;51.666;6.634;2022-10-31T07:10:41;14.82;;;10.30;;
12958;SDS011;6544;51.666;6.634;2022-10-31T07:13:09;15.23;;;9.93;;
12958;SDS011;6544;51.666;6.634;2022-10-31T07:15:38;14.52;;;10.45;;
12958;SDS011;6544;51.666;6.634;2022-10-31T07:18:07;12.73;;;11.00;;
12958;SDS011;6544;51.666;6.634;2022-10-31T07:20:35;16.08;;;11.48;;
12958;SDS011;6544;51.666;6.634;2022-10-31T07:23:03;16.33;;;11.38;;
12958;SDS011;6544;51.666;6.634;2022-10-31T07:25:30;15.80;;;11.10;;
12958;SDS011;6544;51.666;6.634;2022-10-31T07:27:58;25.05;;;12.82;;
12958;SDS011;6544;51.666;6.634;2022-10-31T07:30:25;17.10;;;11.90;;
12958;SDS011;6544;51.666;6.634;2022-10-31T07:32:52;16.35;;;11.25;;
12958;SDS011;6544;51.666;6.634;2022-10-31T07:35:21;16.77;;;11.73;;
12958;SDS011;6544;51.666;6.634;2022-10-31T07:37:49;14.30;;;10.55;;
12958;SDS011;6544;51.666;6.634;2022-10-31T07:40:17;18.25;;;12.77;;
12958;SDS011;6544;51.666;6.634;2022-10-31T07:42:45;18.20;;;11.52;;
12958;SDS011;6544;51.666;6.634;2022-10-31T07:45:15;15.27;;;12.20;;
12958;SDS011;6544;51.666;6.634;2022-10-31T07:47:43;15.40;;;12.48;;
12958;SDS011;6544;51.666;6.634;2022-10-31T07:50:12;17.33;;;11.73;;
12958;SDS011;6544;51.666;6.634;2022-10-31T07:52:40;20.98;;;12.13;;
12958;SDS011;6544;51.666;6.634;2022-10-31T07:55:08;17.83;;;11.80;;
12958;SDS011;6544;51.666;6.634;2022-10-31T07:57:35;17.70;;;12.25;;
12958;SDS011;6544;51.666;6.634;2022-10-31T08:00:02;17.85;;;13.45;;
12958;SDS011;6544;51.666;6.634;2022-10-31T08:02:31;17.10;;;13.35;;
12958;SDS011;6544;51.666;6.634;2022-10-31T08:04:58;20.33;;;14.70;;
12958;SDS011;6544;51.666;6.634;2022-10-31T08:07:26;20.92;;;14.68;;
12958;SDS011;6544;51.666;6.634;2022-10-31T08:09:54;19.98;;;13.88;;
12958;SDS011;6544;51.666;6.634;2022-10-31T08:12:21;19.65;;;13.05;;
12958;SDS011;6544;51.666;6.634;2022-10-31T08:14:48;16.95;;;12.93;;
12958;SDS011;6544;51.666;6.634;2022-10-31T08:17:15;21.67;;;13.25;;
12958;SDS011;6544;51.666;6.634;2022-10-31T08:19:44;19.15;;;13.45;;
12958;SDS011;6544;51.666;6.634;2022-10-31T08:22:11;22.00;;;12.98;;
12958;SDS011;6544;51.666;6.634;2022-10-31T08:24:38;21.80;;;14.98;;
12958;SDS011;6544;51.666;6.634;2022-10-31T08:27:04;22.95;;;15.25;;
12958;SDS011;6544;51.666;6.634;2022-10-31T08:29:31;20.20;;;14.43;;
12958;SDS011;6544;51.666;6.634;2022-10-31T08:31:58;19.35;;;12.93;;
12958;SDS011;6544;51.666;6.634;2022-10-31T08:34:25;18.83;;;13.10;;
12958;SDS011;6544;51.666;6.634;2022-10-31T08:36:53;22.15;;;15.82;;
12958;SDS011;6544;51.666;6.634;2022-10-31T08:39:20;23.27;;;15.13;;
12958;SDS011;6544;51.666;6.634;2022-10-31T08:41:47;19.77;;;13.65;;
12958;SDS011;6544;51.666;6.634;2022-10-31T08:44:15;22.25;;;13.23;;
12958;SDS011;6544;51.666;6.634;2022-10-31T08:46:42;24.08;;;15.27;;
12958;SDS011;6544;51.666;6.634;2022-10-31T08:49:09;19.58;;;14.13;;
12958;SDS011;6544;51.666;6.634;2022-10-31T08:51:36;23.50;;;16.05;;
12958;SDS011;6544;51.666;6.634;2022-10-31T08:54:04;23.63;;;14.75;;
12958;SDS011;6544;51.666;6.634;2022-10-31T08:56:31;21.35;;;15.38;;
12958;SDS011;6544;51.666;6.634;2022-10-31T08:58:58;21.83;;;15.98;;
12958;SDS011;6544;51.666;6.634;2022-10-31T09:01:26;22.30;;;14.32;;
12958;SDS011;6544;51.666;6.634;2022-10-31T09:03:53;20.88;;;14.27;;
12958;SDS011;6544;51.666;6.634;2022-10-31T09:06:20;20.45;;;14.45;;
12958;SDS011;6544;51.666;6.634;2022-10-31T09:08:46;22.25;;;16.60;;
12958;SDS011;6544;51.666;6.634;2022-10-31T09:11:15;25.65;;;15.48;;
12958;SDS011;6544;51.666;6.634;2022-10-31T09:13:42;27.80;;;16.00;;
12958;SDS011;6544;51.666;6.634;2022-10-31T09:16:09;25.00;;;16.35;;
12958;SDS011;6544;51.666;6.634;2022-10-31T09:18:35;26.48;;;17.42;;
12958;SDS011;6544;51.666;6.634;2022-10-31T09:21:03;25.02;;;15.25;;
12958;SDS011;6544;51.666;6.634;2022-10-31T09:23:30;24.02;;;17.17;;
12958;SDS011;6544;51.666;6.634;2022-10-31T09:25:58;23.00;;;15.90;;
12958;SDS011;6544;51.666;6.634;2022-10-31T09:28:28;28.38;;;15.93;;
12958;SDS011;6544;51.666;6.634;2022-10-31T09:30:56;23.15;;;16.02;;
12958;SDS011;6544;51.666;6.634;2022-10-31T09:33:23;25.45;;;17.17;;
12958;SDS011;6544;51.666;6.634;2022-10-31T09:35:50;28.55;;;16.48;;
12958;SDS011;6544;51.666;6.634;2022-10-31T09:38:18;24.88;;;16.50;;
12958;SDS011;6544;51.666;6.634;2022-10-31T09:40:47;23.73;;;17.13;;
12958;SDS011;6544;51.666;6.634;2022-10-31T09:43:21;23.25;;;15.85;;
12958;SDS011;6544;51.666;6.634;2022-10-31T09:45:58;22.08;;;15.57;;
12958;SDS011;6544;51.666;6.634;2022-10-31T09:48:33;24.17;;;15.88;;
12958;SDS011;6544;51.666;6.634;2022-10-31T09:51:07;23.75;;;15.13;;
12958;SDS011;6544;51.666;6.634;2022-10-31T09:53:37;24.95;;;18.40;;
12958;SDS011;6544;51.666;6.634;2022-10-31T09:56:08;32.42;;;17.23;;
12958;SDS011;6544;51.666;6.634;2022-10-31T09:58:40;29.80;;;17.58;;
12958;SDS011;6544;51.666;6.634;2022-10-31T10:01:16;26.85;;;17.75;;
12958;SDS011;6544;51.666;6.634;2022-10-31T10:03:50;29.63;;;18.42;;
12958;SDS011;6544;51.666;6.634;2022-10-31T10:06:22;23.95;;;15.90;;
12958;SDS011;6544;51.666;6.634;2022-10-31T10:08:50;28.85;;;17.42;;
12958;SDS011;6544;51.666;6.634;2022-10-31T10:11:25;23.80;;;17.40;;
12958;SDS011;6544;51.666;6.634;2022-10-31T10:14:04;20.92;;;15.45;;
12958;SDS011;6544;51.666;6.634;2022-10-31T10:16:50;25.15;;;16.88;;
12958;SDS011;6544;51.666;6.634;2022-10-31T10:19:34;22.88;;;17.50;;
12958;SDS011;6544;51.666;6.634;2022-10-31T10:22:17;23.35;;;15.57;;
12958;SDS011;6544;51.666;6.634;2022-10-31T10:24:55;24.13;;;15.60;;
12958;SDS011;6544;51.666;6.634;2022-10-31T10:27:30;28.38;;;17.70;;
12958;SDS011;6544;51.666;6.634;2022-10-31T10:30:11;26.30;;;16.27;;
12958;SDS011;6544;51.666;6.634;2022-10-31T10:32:43;21.98;;;15.75;;
12958;SDS011;6544;51.666;6.634;2022-10-31T10:35:14;29.48;;;17.05;;
12958;SDS011;6544;51.666;6.634;2022-10-31T10:37:48;33.08;;;17.38;;
12958;SDS011;6544;51.666;6.634;2022-10-31T10:40:20;28.60;;;17.60;;
12958;SDS011;6544;51.666;6.634;2022-10-31T10:42:56;29.17;;;16.02;;
12958;SDS011;6544;51.666;6.634;2022-10-31T10:45:47;27.10;;;16.70;;
12958;SDS011;6544;51.666;6.634;2022-10-31T10:48:39;27.25;;;17.63;;
12958;SDS011;6544;51.666;6.634;2022-10-31T10:51:10;29.92;;;17.15;;
12958;SDS011;6544;51.666;6.634;2022-10-31T10:53:54;25.90;;;15.93;;
12958;SDS011;6544;51.666;6.634;2022-10-31T10:56:42;32.95;;;18.92;;
12958;SDS011;6544;51.666;6.634;2022-10-31T10:59:20;30.17;;;17.30;;
12958;SDS011;6544;51.666;6.634;2022-10-31T11:01:48;26.63;;;16.75;;
12958;SDS011;6544;51.666;6.634;2022-10-31T11:04:26;26.90;;;15.93;;
12958;SDS011;6544;51.666;6.634;2022-10-31T11:06:58;28.58;;;17.33;;
12958;SDS011;6544;51.666;6.634;2022-10-31T11:09:26;23.77;;;16.00;;
12958;SDS011;6544;51.666;6.634;2022-10-31T11:11:53;35.70;;;19.02;;
12958;SDS011;6544;51.666;6.634;2022-10-31T11:14:21;30.42;;;16.70;;
12958;SDS011;6544;51.666;6.634;2022-10-31T11:16:53;27.38;;;16.55;;
12958;SDS011;6544;51.666;6.634;2022-10-31T11:19:22;25.50;;;17.52;;
12958;SDS011;6544;51.666;6.634;2022-10-31T11:21:53;26.98;;;16.98;;
12958;SDS011;6544;51.666;6.634;2022-10-31T11:24:21;28.48;;;16.75;;
12958;SDS011;6544;51.666;6.634;2022-10-31T11:26:50;28.83;;;17.75;;
12958;SDS011;6544;51.666;6.634;2022-10-31T11:29:20;28.05;;;17.73;;
12958;SDS011;6544;51.666;6.634;2022-10-31T11:31:50;30.60;;;18.17;;
12958;SDS011;6544;51.666;6.634;2022-10-31T11:34:25;31.17;;;18.58;;
12958;SDS011;6544;51.666;6.634;2022-10-31T11:36:59;31.02;;;18.25;;
12958;SDS011;6544;51.666;6.634;2022-10-31T11:39:38;30.85;;;18.00;;
12958;SDS011;6544;51.666;6.634;2022-10-31T11:42:07;30.08;;;19.98;;
12958;SDS011;6544;51.666;6.634;2022-10-31T11:44:34;27.83;;;18.38;;
12958;SDS011;6544;51.666;6.634;2022-10-31T11:47:01;38.03;;;17.95;;
12958;SDS011;6544;51.666;6.634;2022-10-31T11:49:31;30.45;;;18.38;;
12958;SDS011;6544;51.666;6.634;2022-10-31T11:52:04;33.05;;;18.23;;
12958;SDS011;6544;51.666;6.634;2022-10-31T11:54:34;28.95;;;17.60;;
12958;SDS011;6544;51.666;6.634;2022-10-31T11:57:20;31.35;;;17.80;;
12958;SDS011;6544;51.666;6.634;2022-10-31T11:59:53;32.42;;;18.38;;
12958;SDS011;6544;51.666;6.634;2022-10-31T12:02:21;35.58;;;18.67;;
12958;SDS011;6544;51.666;6.634;2022-10-31T12:04:50;33.72;;;19.17;;
12958;SDS011;6544;51.666;6.634;2022-10-31T12:07:25;31.48;;;19.23;;
12958;SDS011;6544;51.666;6.634;2022-10-31T12:09:52;34.05;;;19.50;;
12958;SDS011;6544;51.666;6.634;2022-10-31T12:18:15;31.02;;;19.55;;
12958;SDS011;6544;51.666;6.634;2022-10-31T12:20:54;36.55;;;19.45;;
12958;SDS011;6544;51.666;6.634;2022-10-31T12:23:34;37.15;;;20.98;;
12958;SDS011;6544;51.666;6.634;2022-10-31T12:26:11;35.15;;;21.73;;
12958;SDS011;6544;51.666;6.634;2022-10-31T12:28:47;34.83;;;19.48;;
12958;SDS011;6544;51.666;6.634;2022-10-31T12:31:33;40.45;;;22.63;;
12958;SDS011;6544;51.666;6.634;2022-10-31T12:37:01;34.35;;;20.95;;
12958;SDS011;6544;51.666;6.634;2022-10-31T12:39:39;42.88;;;24.80;;
12958;SDS011;6544;51.666;6.634;2022-10-31T12:42:15;35.30;;;20.42;;
12958;SDS011;6544;51.666;6.634;2022-10-31T12:45:07;34.97;;;20.48;;
12958;SDS011;6544;51.666;6.634;2022-10-31T12:47:55;35.33;;;20.60;;
12958;SDS011;6544;51.666;6.634;2022-10-31T12:50:36;37.65;;;21.15;;
12958;SDS011;6544;51.666;6.634;2022-10-31T12:53:19;37.50;;;21.77;;
12958;SDS011;6544;51.666;6.634;2022-10-31T12:56:01;34.47;;;20.77;;
12958;SDS011;6544;51.666;6.634;2022-10-31T12:58:43;36.13;;;21.42;;
12958;SDS011;6544;51.666;6.634;2022-10-31T13:01:14;38.00;;;21.13;;
12958;SDS011;6544;51.666;6.634;2022-10-31T13:03:50;37.53;;;20.77;;
12958;SDS011;6544;51.666;6.634;2022-10-31T13:06:24;36.60;;;20.85;;
12958;SDS011;6544;51.666;6.634;2022-10-31T13:08:56;38.03;;;20.90;;
12958;SDS011;6544;51.666;6.634;2022-10-31T13:11:29;34.63;;;19.60;;
12958;SDS011;6544;51.666;6.634;2022-10-31T13:14:01;37.55;;;20.58;;
12958;SDS011;6544;51.666;6.634;2022-10-31T13:16:33;34.47;;;19.85;;
12958;SDS011;6544;51.666;6.634;2022-10-31T13:19:04;38.10;;;21.17;;
12958;SDS011;6544;51.666;6.634;2022-10-31T13:21:37;32.80;;;19.88;;
12958;SDS011;6544;51.666;6.634;2022-10-31T13:24:09;32.58;;;18.63;;
12958;SDS011;6544;51.666;6.634;2022-10-31T13:26:42;31.48;;;19.65;;
12958;SDS011;6544;51.666;6.634;2022-10-31T13:29:15;34.13;;;20.00;;
12958;SDS011;6544;51.666;6.634;2022-10-31T13:31:46;37.33;;;19.65;;
12958;SDS011;6544;51.666;6.634;2022-10-31T13:34:18;32.67;;;19.67;;
12958;SDS011;6544;51.666;6.634;2022-10-31T13:36:55;36.60;;;19.35;;
12958;SDS011;6544;51.666;6.634;2022-10-31T13:39:30;32.00;;;18.60;;
12958;SDS011;6544;51.666;6.634;2022-10-31T13:42:10;32.88;;;18.95;;
12958;SDS011;6544;51.666;6.634;2022-10-31T13:44:43;29.02;;;17.77;;
12958;SDS011;6544;51.666;6.634;2022-10-31T13:47:23;32.53;;;18.95;;
12958;SDS011;6544;51.666;6.634;2022-10-31T13:50:02;34.67;;;18.60;;
12958;SDS011;6544;51.666;6.634;2022-10-31T13:52:31;31.88;;;18.30;;
12958;SDS011;6544;51.666;6.634;2022-10-31T13:54:58;27.77;;;17.83;;
12958;SDS011;6544;51.666;6.634;2022-10-31T13:57:30;32.60;;;18.85;;
12958;SDS011;6544;51.666;6.634;2022-10-31T13:59:59;30.08;;;18.13;;
12958;SDS011;6544;51.666;6.634;2022-10-31T14:02:30;29.55;;;17.50;;
12958;SDS011;6544;51.666;6.634;2022-10-31T14:04:59;29.60;;;17.58;;
12958;SDS011;6544;51.666;6.634;2022-10-31T14:07:29;33.40;;;19.00;;
12958;SDS011;6544;51.666;6.634;2022-10-31T14:09:57;33.03;;;19.25;;
12958;SDS011;6544;51.666;6.634;2022-10-31T14:12:30;30.73;;;17.25;;
12958;SDS011;6544;51.666;6.634;2022-10-31T14:15:03;33.67;;;17.98;;
12958;SDS011;6544;51.666;6.634;2022-10-31T14:17:37;33.05;;;17.90;;
12958;SDS011;6544;51.666;6.634;2022-10-31T14:26:06;31.95;;;16.92;;
12958;SDS011;6544;51.666;6.634;2022-10-31T14:28:46;31.75;;;17.50;;
12958;SDS011;6544;51.666;6.634;2022-10-31T14:31:26;29.52;;;17.55;;
12958;SDS011;6544;51.666;6.634;2022-10-31T14:34:24;33.50;;;16.98;;
12958;SDS011;6544;51.666;6.634;2022-10-31T14:37:16;32.03;;;17.42;;
12958;SDS011;6544;51.666;6.634;2022-10-31T14:39:58;29.45;;;17.02;;
12958;SDS011;6544;51.666;6.634;2022-10-31T14:42:47;27.23;;;16.08;;
12958;SDS011;6544;51.666;6.634;2022-10-31T14:45:37;27.73;;;16.90;;
12958;SDS011;6544;51.666;6.634;2022-10-31T14:48:24;30.30;;;16.08;;
12958;SDS011;6544;51.666;6.634;2022-10-31T14:51:10;25.83;;;15.57;;
12958;SDS011;6544;51.666;6.634;2022-10-31T14:53:42;34.13;;;16.65;;
12958;SDS011;6544;51.666;6.634;2022-10-31T14:56:12;32.92;;;17.85;;
12958;SDS011;6544;51.666;6.634;2022-10-31T14:58:44;31.33;;;16.88;;
12958;SDS011;6544;51.666;6.634;2022-10-31T15:01:18;33.92;;;16.63;;
12958;SDS011;6544;51.666;6.634;2022-10-31T15:03:48;28.60;;;16.15;;
12958;SDS011;6544;51.666;6.634;2022-10-31T15:06:17;34.45;;;17.60;;
12958;SDS011;6544;51.666;6.634;2022-10-31T15:08:47;28.67;;;16.08;;
12958;SDS011;6544;51.666;6.634;2022-10-31T15:11:15;31.73;;;17.23;;
12958;SDS011;6544;51.666;6.634;2022-10-31T15:13:44;26.83;;;16.30;;
12958;SDS011;6544;51.666;6.634;2022-10-31T15:16:13;29.02;;;16.10;;
12958;SDS011;6544;51.666;6.634;2022-10-31T15:18:50;28.20;;;16.17;;